sensor_id;sensor_type;location;lat;lon;timestamp;temperature;humidity
8595;DHT22;4335;48.860;9.198;2022-08-21T00:00:37;18.40;99.90
8595;DHT22;4335;48.860;9.198;2022-08-21T00:03:06;18.40;99.90
8595;DHT22;4335;48.860;9.198;2022-08-21T00:05:36;18.40;99.90
8595;DHT22;4335;48.860;9.198;2022-08-21T00:08:04;18.40;99.90
8595;DHT22;4335;48.860;9.198;2022-08-21T00:10:31;18.40;99.90
8595;DHT22;4335;48.860;9.198;2022-08-21T00:13:00;18.40;99.90
8595;DHT22;4335;48.860;9.198;2022-08-21T00:15:28;18.40;99.90
8595;DHT22;4335;48.860;9.198;2022-08-21T00:17:56;18.40;99.90
8595;DHT22;4335;48.860;9.198;2022-08-21T00:20:23;18.30;99.90
8595;DHT22;4335;48.860;9.198;2022-08-21T00:22:49;18.30;99.90
8595;DHT22;4335;48.860;9.198;2022-08-21T00:25:18;18.30;99.90
8595;DHT22;4335;48.860;9.198;2022-08-21T00:27:45;18.20;99.90
8595;DHT22;4335;48.860;9.198;2022-08-21T00:30:15;18.20;99.90
8595;DHT22;4335;48.860;9.198;2022-08-21T00:32:43;18.20;99.90
8595;DHT22;4335;48.860;9.198;2022-08-21T00:35:16;18.20;99.90
8595;DHT22;4335;48.860;9.198;2022-08-21T00:37:43;18.10;99.90
8595;DHT22;4335;48.860;9.198;2022-08-21T00:40:19;18.10;99.90
8595;DHT22;4335;48.860;9.198;2022-08-21T00:42:49;18.10;99.90
8595;DHT22;4335;48.860;9.198;2022-08-21T00:45:17;18.10;99.90
8595;DHT22;4335;48.860;9.198;2022-08-21T00:47:43;18.10;99.90
8595;DHT22;4335;48.860;9.198;2022-08-21T00:50:11;18.10;99.90
8595;DHT22;4335;48.860;9.198;2022-08-21T00:52:42;18.00;99.90
8595;DHT22;4335;48.860;9.198;2022-08-21T00:55:11;18.00;99.90
8595;DHT22;4335;48.860;9.198;2022-08-21T00:57:40;18.00;99.90
8595;DHT22;4335;48.860;9.198;2022-08-21T01:00:11;18.00;99.90
8595;DHT22;4335;48.860;9.198;2022-08-21T01:02:39;17.90;99.90
8595;DHT22;4335;48.860;9.198;2022-08-21T01:05:07;17.90;99.90
8595;DHT22;4335;48.860;9.198;2022-08-21T01:07:34;17.90;99.90
8595;DHT22;4335;48.860;9.198;2022-08-21T01:10:01;17.90;99.90
8595;DHT22;4335;48.860;9.198;2022-08-21T01:12:28;17.80;99.90
8595;DHT22;4335;48.860;9.198;2022-08-21T01:14:58;17.80;99.90
8595;DHT22;4335;48.860;9.198;2022-08-21T01:17:26;17.80;99.90
8595;DHT22;4335;48.860;9.198;2022-08-21T01:19:57;17.70;99.90
8595;DHT22;4335;48.860;9.198;2022-08-21T01:22:24;17.70;99.90
8595;DHT22;4335;48.860;9.198;2022-08-21T01:24:52;17.60;99.90
8595;DHT22;4335;48.860;9.198;2022-08-21T01:27:25;17.60;99.90
8595;DHT22;4335;48.860;9.198;2022-08-21T01:29:56;17.60;99.90
8595;DHT22;4335;48.860;9.198;2022-08-21T01:32:26;17.60;99.90
8595;DHT22;4335;48.860;9.198;2022-08-21T01:34:53;17.50;99.90
8595;DHT22;4335;48.860;9.198;2022-08-21T01:37:21;17.50;99.90
8595;DHT22;4335;48.860;9.198;2022-08-21T01:39:52;17.40;99.90
8595;DHT22;4335;48.860;9.198;2022-08-21T01:42:19;17.40;99.90
8595;DHT22;4335;48.860;9.198;2022-08-21T01:44:48;17.40;99.90
8595;DHT22;4335;48.860;9.198;2022-08-21T01:47:15;17.40;99.90
8595;DHT22;4335;48.860;9.198;2022-08-21T01:49:43;17.50;99.90
8595;DHT22;4335;48.860;9.198;2022-08-21T01:52:13;17.50;99.90
8595;DHT22;4335;48.860;9.198;2022-08-21T01:54:40;17.40;99.90
8595;DHT22;4335;48.860;9.198;2022-08-21T01:57:08;17.40;99.90
8595;DHT22;4335;48.860;9.198;2022-08-21T01:59:35;17.40;99.90
8595;DHT22;4335;48.860;9.198;2022-08-21T02:02:03;17.40;99.90
8595;DHT22;4335;48.860;9.198;2022-08-21T02:04:33;17.40;99.90
8595;DHT22;4335;48.860;9.198;2022-08-21T02:07:07;17.40;99.90
8595;DHT22;4335;48.860;9.198;2022-08-21T02:09:40;17.40;99.90
8595;DHT22;4335;48.860;9.198;2022-08-21T02:12:08;17.40;99.90
8595;DHT22;4335;48.860;9.198;2022-08-21T02:14:35;17.30;99.90
8595;DHT22;4335;48.860;9.198;2022-08-21T02:17:09;17.30;99.90
8595;DHT22;4335;48.860;9.198;2022-08-21T02:19:39;17.30;99.90
8595;DHT22;4335;48.860;9.198;2022-08-21T02:22:06;17.30;99.90
8595;DHT22;4335;48.860;9.198;2022-08-21T02:24:40;17.30;99.90
8595;DHT22;4335;48.860;9.198;2022-08-21T02:27:07;17.30;99.90
8595;DHT22;4335;48.860;9.198;2022-08-21T02:29:37;17.20;99.90
8595;DHT22;4335;48.860;9.198;2022-08-21T02:32:04;17.20;99.90
8595;DHT22;4335;48.860;9.198;2022-08-21T02:34:30;17.20;99.90
8595;DHT22;4335;48.860;9.198;2022-08-21T02:36:57;17.10;99.90
8595;DHT22;4335;48.860;9.198;2022-08-21T02:39:26;17.10;99.90
8595;DHT22;4335;48.860;9.198;2022-08-21T02:41:53;17.10;99.90
8595;DHT22;4335;48.860;9.198;2022-08-21T02:44:20;17.00;99.90
8595;DHT22;4335;48.860;9.198;2022-08-21T02:46:47;17.00;99.90
8595;DHT22;4335;48.860;9.198;2022-08-21T02:49:14;17.00;99.90
8595;DHT22;4335;48.860;9.198;2022-08-21T02:51:40;16.90;99.90
8595;DHT22;4335;48.860;9.198;2022-08-21T02:54:09;16.90;99.90
8595;DHT22;4335;48.860;9.198;2022-08-21T02:56:36;16.90;99.90
8595;DHT22;4335;48.860;9.198;2022-08-21T02:59:05;16.90;99.90
8595;DHT22;4335;48.860;9.198;2022-08-21T03:01:32;16.80;99.90
8595;DHT22;4335;48.860;9.198;2022-08-21T03:03:59;16.80;99.90
8595;DHT22;4335;48.860;9.198;2022-08-21T03:06:26;16.80;99.90
8595;DHT22;4335;48.860;9.198;2022-08-21T03:08:54;16.70;99.90
8595;DHT22;4335;48.860;9.198;2022-08-21T03:11:21;16.70;99.90
8595;DHT22;4335;48.860;9.198;2022-08-21T03:13:47;16.70;99.90
8595;DHT22;4335;48.860;9.198;2022-08-21T03:16:14;16.70;99.90
8595;DHT22;4335;48.860;9.198;2022-08-21T03:18:41;16.60;99.90
8595;DHT22;4335;48.860;9.198;2022-08-21T03:21:11;16.60;99.90
8595;DHT22;4335;48.860;9.198;2022-08-21T03:23:39;16.60;99.90
8595;DHT22;4335;48.860;9.198;2022-08-21T03:26:07;16.60;99.90
8595;DHT22;4335;48.860;9.198;2022-08-21T03:28:34;16.60;99.90
8595;DHT22;4335;48.860;9.198;2022-08-21T03:31:01;16.50;99.90
8595;DHT22;4335;48.860;9.198;2022-08-21T03:33:31;16.50;99.90
8595;DHT22;4335;48.860;9.198;2022-08-21T03:36:00;16.50;99.90
8595;DHT22;4335;48.860;9.198;2022-08-21T03:38:29;16.50;99.90
8595;DHT22;4335;48.860;9.198;2022-08-21T03:40:57;16.50;99.90
8595;DHT22;4335;48.860;9.198;2022-08-21T03:43:23;16.40;99.90
8595;DHT22;4335;48.860;9.198;2022-08-21T03:45:50;16.40;99.90
8595;DHT22;4335;48.860;9.198;2022-08-21T03:48:17;16.30;99.90
8595;DHT22;4335;48.860;9.198;2022-08-21T03:50:45;16.30;99.90
8595;DHT22;4335;48.860;9.198;2022-08-21T03:53:13;16.30;99.90
8595;DHT22;4335;48.860;9.198;2022-08-21T03:55:41;16.30;99.90
8595;DHT22;4335;48.860;9.198;2022-08-21T03:58:08;16.30;99.90
8595;DHT22;4335;48.860;9.198;2022-08-21T04:00:35;16.20;99.90
8595;DHT22;4335;48.860;9.198;2022-08-21T04:03:03;16.20;99.90
8595;DHT22;4335;48.860;9.198;2022-08-21T04:05:30;16.20;99.90
8595;DHT22;4335;48.860;9.198;2022-08-21T04:07:57;16.20;99.90
8595;DHT22;4335;48.860;9.198;2022-08-21T04:10:25;16.20;99.90
8595;DHT22;4335;48.860;9.198;2022-08-21T04:12:56;16.20;99.90
8595;DHT22;4335;48.860;9.198;2022-08-21T04:15:26;16.20;99.90
8595;DHT22;4335;48.860;9.198;2022-08-21T04:17:53;16.20;99.90
8595;DHT22;4335;48.860;9.198;2022-08-21T04:20:21;16.10;99.90
8595;DHT22;4335;48.860;9.198;2022-08-21T04:22:48;16.10;99.90
8595;DHT22;4335;48.860;9.198;2022-08-21T04:25:17;16.10;99.90
8595;DHT22;4335;48.860;9.198;2022-08-21T04:27:44;16.10;99.90
8595;DHT22;4335;48.860;9.198;2022-08-21T04:30:13;16.10;99.90
8595;DHT22;4335;48.860;9.198;2022-08-21T04:32:42;16.20;99.90
8595;DHT22;4335;48.860;9.198;2022-08-21T04:35:18;16.20;99.90
8595;DHT22;4335;48.860;9.198;2022-08-21T04:37:48;16.10;99.90
8595;DHT22;4335;48.860;9.198;2022-08-21T04:40:17;16.20;99.90
8595;DHT22;4335;48.860;9.198;2022-08-21T04:42:48;16.20;99.90
8595;DHT22;4335;48.860;9.198;2022-08-21T04:45:18;16.30;99.90
8595;DHT22;4335;48.860;9.198;2022-08-21T04:47:48;16.30;99.90
8595;DHT22;4335;48.860;9.198;2022-08-21T04:50:18;16.40;99.90
8595;DHT22;4335;48.860;9.198;2022-08-21T04:52:46;16.60;99.90
8595;DHT22;4335;48.860;9.198;2022-08-21T04:55:13;16.80;99.90
8595;DHT22;4335;48.860;9.198;2022-08-21T04:57:41;17.00;99.90
8595;DHT22;4335;48.860;9.198;2022-08-21T05:00:12;17.20;99.90
8595;DHT22;4335;48.860;9.198;2022-08-21T05:02:41;17.40;99.90
8595;DHT22;4335;48.860;9.198;2022-08-21T05:05:14;17.60;99.90
8595;DHT22;4335;48.860;9.198;2022-08-21T05:07:42;17.90;99.90
8595;DHT22;4335;48.860;9.198;2022-08-21T05:10:13;18.10;99.90
8595;DHT22;4335;48.860;9.198;2022-08-21T05:12:40;18.40;99.90
8595;DHT22;4335;48.860;9.198;2022-08-21T05:15:08;18.60;99.90
8595;DHT22;4335;48.860;9.198;2022-08-21T05:17:35;18.80;99.90
8595;DHT22;4335;48.860;9.198;2022-08-21T05:20:11;19.00;99.90
8595;DHT22;4335;48.860;9.198;2022-08-21T05:22:38;19.30;99.90
8595;DHT22;4335;48.860;9.198;2022-08-21T05:25:07;19.60;99.90
8595;DHT22;4335;48.860;9.198;2022-08-21T05:27:33;19.80;99.90
8595;DHT22;4335;48.860;9.198;2022-08-21T05:30:01;20.00;99.90
8595;DHT22;4335;48.860;9.198;2022-08-21T05:32:33;20.30;99.90
8595;DHT22;4335;48.860;9.198;2022-08-21T05:35:01;20.50;99.90
8595;DHT22;4335;48.860;9.198;2022-08-21T05:37:28;20.80;99.90
8595;DHT22;4335;48.860;9.198;2022-08-21T05:39:55;20.90;99.90
8595;DHT22;4335;48.860;9.198;2022-08-21T05:42:22;21.10;99.90
8595;DHT22;4335;48.860;9.198;2022-08-21T05:44:52;21.30;99.90
8595;DHT22;4335;48.860;9.198;2022-08-21T05:47:18;21.60;99.90
8595;DHT22;4335;48.860;9.198;2022-08-21T05:49:45;21.90;99.90
8595;DHT22;4335;48.860;9.198;2022-08-21T05:52:19;22.30;99.90
8595;DHT22;4335;48.860;9.198;2022-08-21T05:54:47;22.60;99.90
8595;DHT22;4335;48.860;9.198;2022-08-21T05:57:14;23.00;99.90
8595;DHT22;4335;48.860;9.198;2022-08-21T05:59:40;23.60;99.90
8595;DHT22;4335;48.860;9.198;2022-08-21T06:02:07;24.10;99.90
8595;DHT22;4335;48.860;9.198;2022-08-21T06:04:36;24.40;99.90
8595;DHT22;4335;48.860;9.198;2022-08-21T06:07:08;25.20;99.90
8595;DHT22;4335;48.860;9.198;2022-08-21T06:09:35;25.70;99.90
8595;DHT22;4335;48.860;9.198;2022-08-21T06:12:05;26.30;99.90
8595;DHT22;4335;48.860;9.198;2022-08-21T06:14:32;26.80;99.90
8595;DHT22;4335;48.860;9.198;2022-08-21T06:17:02;27.30;99.90
8595;DHT22;4335;48.860;9.198;2022-08-21T06:19:29;27.80;99.90
8595;DHT22;4335;48.860;9.198;2022-08-21T06:21:59;28.20;99.90
8595;DHT22;4335;48.860;9.198;2022-08-21T06:24:26;28.70;99.90
8595;DHT22;4335;48.860;9.198;2022-08-21T06:26:56;29.00;98.50
8595;DHT22;4335;48.860;9.198;2022-08-21T06:29:26;29.40;97.50
8595;DHT22;4335;48.860;9.198;2022-08-21T06:31:56;29.90;96.40
8595;DHT22;4335;48.860;9.198;2022-08-21T06:34:23;29.70;95.10
8595;DHT22;4335;48.860;9.198;2022-08-21T06:36:49;29.90;94.70
8595;DHT22;4335;48.860;9.198;2022-08-21T06:39:16;29.80;93.70
8595;DHT22;4335;48.860;9.198;2022-08-21T06:41:43;29.90;93.60
8595;DHT22;4335;48.860;9.198;2022-08-21T06:44:09;30.40;93.00
8595;DHT22;4335;48.860;9.198;2022-08-21T06:46:40;30.90;92.00
8595;DHT22;4335;48.860;9.198;2022-08-21T06:49:07;31.20;91.60
8595;DHT22;4335;48.860;9.198;2022-08-21T06:51:39;31.50;90.90
8595;DHT22;4335;48.860;9.198;2022-08-21T06:54:06;31.40;90.80
8595;DHT22;4335;48.860;9.198;2022-08-21T06:56:33;31.50;91.20
8595;DHT22;4335;48.860;9.198;2022-08-21T06:59:03;31.40;90.90
8595;DHT22;4335;48.860;9.198;2022-08-21T07:01:31;31.40;91.20
8595;DHT22;4335;48.860;9.198;2022-08-21T07:03:59;31.50;91.00
8595;DHT22;4335;48.860;9.198;2022-08-21T07:06:25;31.70;90.40
8595;DHT22;4335;48.860;9.198;2022-08-21T07:08:52;31.90;88.90
8595;DHT22;4335;48.860;9.198;2022-08-21T07:11:23;32.20;86.60
8595;DHT22;4335;48.860;9.198;2022-08-21T07:13:51;32.70;85.10
8595;DHT22;4335;48.860;9.198;2022-08-21T07:16:20;32.80;82.40
8595;DHT22;4335;48.860;9.198;2022-08-21T07:18:50;33.20;80.00
8595;DHT22;4335;48.860;9.198;2022-08-21T07:21:20;33.80;78.50
8595;DHT22;4335;48.860;9.198;2022-08-21T07:23:51;34.30;75.10
8595;DHT22;4335;48.860;9.198;2022-08-21T07:26:20;35.00;73.30
8595;DHT22;4335;48.860;9.198;2022-08-21T07:28:47;35.60;69.10
8595;DHT22;4335;48.860;9.198;2022-08-21T07:31:15;36.40;65.30
8595;DHT22;4335;48.860;9.198;2022-08-21T07:33:43;37.10;60.50
8595;DHT22;4335;48.860;9.198;2022-08-21T07:36:10;37.90;56.30
8595;DHT22;4335;48.860;9.198;2022-08-21T07:38:38;38.20;53.80
8595;DHT22;4335;48.860;9.198;2022-08-21T07:41:13;38.70;52.40
8595;DHT22;4335;48.860;9.198;2022-08-21T07:43:41;39.10;51.30
8595;DHT22;4335;48.860;9.198;2022-08-21T07:46:08;39.20;50.00
8595;DHT22;4335;48.860;9.198;2022-08-21T07:48:37;39.80;48.80
8595;DHT22;4335;48.860;9.198;2022-08-21T07:51:07;39.90;47.60
8595;DHT22;4335;48.860;9.198;2022-08-21T07:53:34;40.10;46.70
8595;DHT22;4335;48.860;9.198;2022-08-21T07:56:03;40.00;46.00
8595;DHT22;4335;48.860;9.198;2022-08-21T07:58:30;40.10;45.40
8595;DHT22;4335;48.860;9.198;2022-08-21T08:00:58;40.40;45.10
8595;DHT22;4335;48.860;9.198;2022-08-21T08:03:25;40.10;44.40
8595;DHT22;4335;48.860;9.198;2022-08-21T08:05:51;40.00;44.30
8595;DHT22;4335;48.860;9.198;2022-08-21T08:08:21;39.90;44.20
8595;DHT22;4335;48.860;9.198;2022-08-21T08:10:48;40.10;43.90
8595;DHT22;4335;48.860;9.198;2022-08-21T08:13:16;40.00;44.00
8595;DHT22;4335;48.860;9.198;2022-08-21T08:15:42;39.80;43.40
8595;DHT22;4335;48.860;9.198;2022-08-21T08:18:09;40.00;43.70
8595;DHT22;4335;48.860;9.198;2022-08-21T08:20:39;39.90;43.10
8595;DHT22;4335;48.860;9.198;2022-08-21T08:23:09;39.90;43.10
8595;DHT22;4335;48.860;9.198;2022-08-21T08:25:36;40.10;42.90
8595;DHT22;4335;48.860;9.198;2022-08-21T08:28:04;39.90;42.80
8595;DHT22;4335;48.860;9.198;2022-08-21T08:30:32;39.20;43.40
8595;DHT22;4335;48.860;9.198;2022-08-21T08:32:59;38.60;44.20
8595;DHT22;4335;48.860;9.198;2022-08-21T08:35:29;38.30;45.70
8595;DHT22;4335;48.860;9.198;2022-08-21T08:38:02;38.00;46.50
8595;DHT22;4335;48.860;9.198;2022-08-21T08:40:35;37.60;46.30
8595;DHT22;4335;48.860;9.198;2022-08-21T08:43:04;37.60;47.00
8595;DHT22;4335;48.860;9.198;2022-08-21T08:45:38;37.10;47.60
8595;DHT22;4335;48.860;9.198;2022-08-21T08:48:09;37.50;47.90
8595;DHT22;4335;48.860;9.198;2022-08-21T08:50:41;37.80;47.40
8595;DHT22;4335;48.860;9.198;2022-08-21T08:53:22;37.90;46.60
8595;DHT22;4335;48.860;9.198;2022-08-21T08:55:52;38.80;45.50
8595;DHT22;4335;48.860;9.198;2022-08-21T08:58:22;38.70;44.60
8595;DHT22;4335;48.860;9.198;2022-08-21T09:00:54;39.30;43.80
8595;DHT22;4335;48.860;9.198;2022-08-21T09:03:22;40.50;42.50
8595;DHT22;4335;48.860;9.198;2022-08-21T09:06:00;40.80;42.10
8595;DHT22;4335;48.860;9.198;2022-08-21T09:08:41;41.90;41.30
8595;DHT22;4335;48.860;9.198;2022-08-21T09:11:20;42.30;40.10
8595;DHT22;4335;48.860;9.198;2022-08-21T09:14:03;42.80;39.50
8595;DHT22;4335;48.860;9.198;2022-08-21T09:16:46;42.70;38.80
8595;DHT22;4335;48.860;9.198;2022-08-21T09:19:33;43.10;38.70
8595;DHT22;4335;48.860;9.198;2022-08-21T09:22:14;43.50;38.00
8595;DHT22;4335;48.860;9.198;2022-08-21T09:24:49;42.80;37.30
8595;DHT22;4335;48.860;9.198;2022-08-21T09:27:21;42.70;37.60
8595;DHT22;4335;48.860;9.198;2022-08-21T09:29:49;42.70;37.50
8595;DHT22;4335;48.860;9.198;2022-08-21T09:32:31;42.70;37.00
8595;DHT22;4335;48.860;9.198;2022-08-21T09:35:01;43.20;36.70
8595;DHT22;4335;48.860;9.198;2022-08-21T09:37:30;43.60;35.50
8595;DHT22;4335;48.860;9.198;2022-08-21T09:40:14;43.70;35.00
8595;DHT22;4335;48.860;9.198;2022-08-21T09:42:41;44.20;34.30
8595;DHT22;4335;48.860;9.198;2022-08-21T09:45:17;43.80;35.10
8595;DHT22;4335;48.860;9.198;2022-08-21T09:47:44;43.90;34.90
8595;DHT22;4335;48.860;9.198;2022-08-21T09:50:14;44.30;34.70
8595;DHT22;4335;48.860;9.198;2022-08-21T09:52:47;44.80;34.20
8595;DHT22;4335;48.860;9.198;2022-08-21T09:55:18;45.00;33.40
8595;DHT22;4335;48.860;9.198;2022-08-21T09:58:00;44.40;33.10
8595;DHT22;4335;48.860;9.198;2022-08-21T10:00:30;44.60;33.30
8595;DHT22;4335;48.860;9.198;2022-08-21T10:03:17;44.10;33.10
8595;DHT22;4335;48.860;9.198;2022-08-21T10:05:56;44.60;33.90
8595;DHT22;4335;48.860;9.198;2022-08-21T10:08:25;44.30;33.70
8595;DHT22;4335;48.860;9.198;2022-08-21T10:10:56;43.80;33.70
8595;DHT22;4335;48.860;9.198;2022-08-21T10:13:32;44.50;33.50
8595;DHT22;4335;48.860;9.198;2022-08-21T10:16:11;44.70;33.10
8595;DHT22;4335;48.860;9.198;2022-08-21T10:19:02;44.60;32.60
8595;DHT22;4335;48.860;9.198;2022-08-21T10:21:37;44.90;32.80
8595;DHT22;4335;48.860;9.198;2022-08-21T10:24:12;45.50;32.50
8595;DHT22;4335;48.860;9.198;2022-08-21T10:26:48;45.50;32.10
8595;DHT22;4335;48.860;9.198;2022-08-21T10:29:32;45.50;31.80
8595;DHT22;4335;48.860;9.198;2022-08-21T10:32:21;45.60;32.20
8595;DHT22;4335;48.860;9.198;2022-08-21T10:34:57;45.00;32.40
8595;DHT22;4335;48.860;9.198;2022-08-21T10:37:33;43.80;32.20
8595;DHT22;4335;48.860;9.198;2022-08-21T10:40:14;41.50;33.20
8595;DHT22;4335;48.860;9.198;2022-08-21T10:42:55;40.40;34.30
8595;DHT22;4335;48.860;9.198;2022-08-21T10:45:42;40.00;34.60
8595;DHT22;4335;48.860;9.198;2022-08-21T10:48:19;39.30;35.20
8595;DHT22;4335;48.860;9.198;2022-08-21T10:50:59;38.10;36.90
8595;DHT22;4335;48.860;9.198;2022-08-21T10:53:49;37.10;37.90
8595;DHT22;4335;48.860;9.198;2022-08-21T10:56:20;35.40;40.10
8595;DHT22;4335;48.860;9.198;2022-08-21T10:59:04;34.20;42.00
8595;DHT22;4335;48.860;9.198;2022-08-21T11:01:46;33.70;43.60
8595;DHT22;4335;48.860;9.198;2022-08-21T11:04:20;32.90;44.90
8595;DHT22;4335;48.860;9.198;2022-08-21T11:07:00;32.00;46.60
8595;DHT22;4335;48.860;9.198;2022-08-21T11:09:28;31.30;48.80
8595;DHT22;4335;48.860;9.198;2022-08-21T11:12:06;30.20;49.80
8595;DHT22;4335;48.860;9.198;2022-08-21T11:14:41;29.90;51.60
8595;DHT22;4335;48.860;9.198;2022-08-21T11:17:16;29.40;52.30
8595;DHT22;4335;48.860;9.198;2022-08-21T11:22:33;28.80;54.10
8595;DHT22;4335;48.860;9.198;2022-08-21T11:25:11;28.30;54.30
8595;DHT22;4335;48.860;9.198;2022-08-21T11:27:43;28.00;54.50
8595;DHT22;4335;48.860;9.198;2022-08-21T11:30:19;27.70;55.90
8595;DHT22;4335;48.860;9.198;2022-08-21T11:33:03;27.50;55.20
8595;DHT22;4335;48.860;9.198;2022-08-21T11:35:44;27.10;55.30
8595;DHT22;4335;48.860;9.198;2022-08-21T11:38:22;27.00;55.10
8595;DHT22;4335;48.860;9.198;2022-08-21T11:41:02;26.90;55.90
8595;DHT22;4335;48.860;9.198;2022-08-21T11:43:37;26.80;56.50
8595;DHT22;4335;48.860;9.198;2022-08-21T11:46:24;26.80;55.70
8595;DHT22;4335;48.860;9.198;2022-08-21T11:49:10;26.70;55.40
8595;DHT22;4335;48.860;9.198;2022-08-21T11:51:51;26.70;55.00
8595;DHT22;4335;48.860;9.198;2022-08-21T11:54:26;26.50;55.30
8595;DHT22;4335;48.860;9.198;2022-08-21T11:56:57;26.40;54.90
8595;DHT22;4335;48.860;9.198;2022-08-21T11:59:32;26.20;55.30
8595;DHT22;4335;48.860;9.198;2022-08-21T12:02:02;26.30;55.00
8595;DHT22;4335;48.860;9.198;2022-08-21T12:04:36;26.30;55.50
8595;DHT22;4335;48.860;9.198;2022-08-21T12:07:31;26.30;55.80
8595;DHT22;4335;48.860;9.198;2022-08-21T12:10:06;26.20;55.20
8595;DHT22;4335;48.860;9.198;2022-08-21T12:12:35;26.20;55.00
8595;DHT22;4335;48.860;9.198;2022-08-21T12:15:24;26.20;55.00
8595;DHT22;4335;48.860;9.198;2022-08-21T12:18:05;26.20;55.00
8595;DHT22;4335;48.860;9.198;2022-08-21T12:20:42;26.10;55.20
8595;DHT22;4335;48.860;9.198;2022-08-21T12:23:29;26.20;55.00
8595;DHT22;4335;48.860;9.198;2022-08-21T12:26:22;26.00;56.00
8595;DHT22;4335;48.860;9.198;2022-08-21T12:28:50;26.00;56.50
8595;DHT22;4335;48.860;9.198;2022-08-21T12:31:25;26.10;56.70
8595;DHT22;4335;48.860;9.198;2022-08-21T12:33:56;26.00;56.70
8595;DHT22;4335;48.860;9.198;2022-08-21T12:36:30;26.10;57.00
8595;DHT22;4335;48.860;9.198;2022-08-21T12:39:05;26.10;56.80
8595;DHT22;4335;48.860;9.198;2022-08-21T12:41:48;26.10;56.80
8595;DHT22;4335;48.860;9.198;2022-08-21T12:44:20;26.10;57.70
8595;DHT22;4335;48.860;9.198;2022-08-21T12:46:53;26.10;57.60
8595;DHT22;4335;48.860;9.198;2022-08-21T12:49:34;26.10;57.50
8595;DHT22;4335;48.860;9.198;2022-08-21T12:52:11;26.00;57.40
8595;DHT22;4335;48.860;9.198;2022-08-21T12:54:42;25.90;57.60
8595;DHT22;4335;48.860;9.198;2022-08-21T12:57:19;25.80;57.70
8595;DHT22;4335;48.860;9.198;2022-08-21T12:59:46;25.70;57.10
8595;DHT22;4335;48.860;9.198;2022-08-21T13:02:26;25.70;57.70
8595;DHT22;4335;48.860;9.198;2022-08-21T13:04:58;25.70;57.80
8595;DHT22;4335;48.860;9.198;2022-08-21T13:07:29;25.70;58.10
8595;DHT22;4335;48.860;9.198;2022-08-21T13:10:02;25.70;58.10
8595;DHT22;4335;48.860;9.198;2022-08-21T13:12:31;25.70;58.80
8595;DHT22;4335;48.860;9.198;2022-08-21T13:15:00;25.70;58.80
8595;DHT22;4335;48.860;9.198;2022-08-21T13:17:32;25.70;58.30
8595;DHT22;4335;48.860;9.198;2022-08-21T13:20:03;25.70;58.10
8595;DHT22;4335;48.860;9.198;2022-08-21T13:22:40;25.70;58.00
8595;DHT22;4335;48.860;9.198;2022-08-21T13:25:10;25.70;58.30
8595;DHT22;4335;48.860;9.198;2022-08-21T13:27:38;25.70;57.60
8595;DHT22;4335;48.860;9.198;2022-08-21T13:30:08;25.80;58.00
8595;DHT22;4335;48.860;9.198;2022-08-21T13:32:39;25.80;58.00
8595;DHT22;4335;48.860;9.198;2022-08-21T13:35:12;25.90;58.00
8595;DHT22;4335;48.860;9.198;2022-08-21T13:37:40;25.90;56.50
8595;DHT22;4335;48.860;9.198;2022-08-21T13:40:11;26.00;56.30
8595;DHT22;4335;48.860;9.198;2022-08-21T13:42:42;25.90;56.00
8595;DHT22;4335;48.860;9.198;2022-08-21T13:45:13;26.00;56.20
8595;DHT22;4335;48.860;9.198;2022-08-21T13:47:41;26.00;56.00
8595;DHT22;4335;48.860;9.198;2022-08-21T13:50:09;26.00;55.60
8595;DHT22;4335;48.860;9.198;2022-08-21T13:52:47;26.00;55.50
8595;DHT22;4335;48.860;9.198;2022-08-21T13:55:18;26.00;55.80
8595;DHT22;4335;48.860;9.198;2022-08-21T13:58:00;26.00;56.00
8595;DHT22;4335;48.860;9.198;2022-08-21T14:00:28;26.10;56.10
8595;DHT22;4335;48.860;9.198;2022-08-21T14:03:03;26.10;56.40
8595;DHT22;4335;48.860;9.198;2022-08-21T14:05:33;26.20;55.80
8595;DHT22;4335;48.860;9.198;2022-08-21T14:08:04;26.20;55.60
8595;DHT22;4335;48.860;9.198;2022-08-21T14:10:31;26.20;55.90
8595;DHT22;4335;48.860;9.198;2022-08-21T14:13:02;26.20;55.70
8595;DHT22;4335;48.860;9.198;2022-08-21T14:15:31;26.30;56.00
8595;DHT22;4335;48.860;9.198;2022-08-21T14:18:07;26.40;55.50
8595;DHT22;4335;48.860;9.198;2022-08-21T14:20:35;26.30;55.90
8595;DHT22;4335;48.860;9.198;2022-08-21T14:23:03;26.30;56.10
8595;DHT22;4335;48.860;9.198;2022-08-21T14:25:37;26.40;55.30
8595;DHT22;4335;48.860;9.198;2022-08-21T14:28:14;26.30;55.50
8595;DHT22;4335;48.860;9.198;2022-08-21T14:30:43;26.30;55.70
8595;DHT22;4335;48.860;9.198;2022-08-21T14:33:21;26.30;55.60
8595;DHT22;4335;48.860;9.198;2022-08-21T14:35:49;26.40;56.30
8595;DHT22;4335;48.860;9.198;2022-08-21T14:38:19;26.40;55.30
8595;DHT22;4335;48.860;9.198;2022-08-21T14:40:48;26.40;55.20
8595;DHT22;4335;48.860;9.198;2022-08-21T14:43:17;26.40;55.20
8595;DHT22;4335;48.860;9.198;2022-08-21T14:45:52;26.40;55.10
8595;DHT22;4335;48.860;9.198;2022-08-21T14:48:18;26.40;55.30
8595;DHT22;4335;48.860;9.198;2022-08-21T14:50:48;26.30;55.10
8595;DHT22;4335;48.860;9.198;2022-08-21T14:53:22;26.30;55.00
8595;DHT22;4335;48.860;9.198;2022-08-21T14:55:48;26.30;55.10
8595;DHT22;4335;48.860;9.198;2022-08-21T14:58:44;26.30;55.40
8595;DHT22;4335;48.860;9.198;2022-08-21T15:01:13;26.40;55.10
8595;DHT22;4335;48.860;9.198;2022-08-21T15:03:40;26.30;55.30
8595;DHT22;4335;48.860;9.198;2022-08-21T15:06:08;26.30;54.90
8595;DHT22;4335;48.860;9.198;2022-08-21T15:08:35;26.40;55.00
8595;DHT22;4335;48.860;9.198;2022-08-21T15:11:04;26.40;54.20
8595;DHT22;4335;48.860;9.198;2022-08-21T15:13:31;26.40;53.90
8595;DHT22;4335;48.860;9.198;2022-08-21T15:15:59;26.30;54.40
8595;DHT22;4335;48.860;9.198;2022-08-21T15:18:29;26.30;54.90
8595;DHT22;4335;48.860;9.198;2022-08-21T15:20:56;26.40;55.30
8595;DHT22;4335;48.860;9.198;2022-08-21T15:23:23;26.40;55.10
8595;DHT22;4335;48.860;9.198;2022-08-21T15:25:53;26.40;54.20
8595;DHT22;4335;48.860;9.198;2022-08-21T15:28:20;26.50;54.50
8595;DHT22;4335;48.860;9.198;2022-08-21T15:30:49;26.50;54.30
8595;DHT22;4335;48.860;9.198;2022-08-21T15:33:17;26.40;54.20
8595;DHT22;4335;48.860;9.198;2022-08-21T15:35:47;26.40;53.80
8595;DHT22;4335;48.860;9.198;2022-08-21T15:38:14;26.50;54.20
8595;DHT22;4335;48.860;9.198;2022-08-21T15:40:42;26.40;53.80
8595;DHT22;4335;48.860;9.198;2022-08-21T15:43:19;26.40;53.90
8595;DHT22;4335;48.860;9.198;2022-08-21T15:45:47;26.40;54.20
8595;DHT22;4335;48.860;9.198;2022-08-21T15:48:20;26.40;53.90
8595;DHT22;4335;48.860;9.198;2022-08-21T15:50:50;26.40;54.70
8595;DHT22;4335;48.860;9.198;2022-08-21T15:53:17;26.50;54.30
8595;DHT22;4335;48.860;9.198;2022-08-21T15:55:44;26.40;53.60
8595;DHT22;4335;48.860;9.198;2022-08-21T15:58:14;26.50;53.80
8595;DHT22;4335;48.860;9.198;2022-08-21T16:00:42;26.50;53.50
8595;DHT22;4335;48.860;9.198;2022-08-21T16:03:15;26.40;53.90
8595;DHT22;4335;48.860;9.198;2022-08-21T16:05:43;26.40;53.80
8595;DHT22;4335;48.860;9.198;2022-08-21T16:08:10;26.40;53.50
8595;DHT22;4335;48.860;9.198;2022-08-21T16:10:43;26.30;53.60
8595;DHT22;4335;48.860;9.198;2022-08-21T16:13:14;26.30;53.70
8595;DHT22;4335;48.860;9.198;2022-08-21T16:15:42;26.30;53.50
8595;DHT22;4335;48.860;9.198;2022-08-21T16:18:12;26.20;54.30
8595;DHT22;4335;48.860;9.198;2022-08-21T16:20:39;26.20;54.20
8595;DHT22;4335;48.860;9.198;2022-08-21T16:23:09;26.20;54.10
8595;DHT22;4335;48.860;9.198;2022-08-21T16:25:39;26.10;54.20
8595;DHT22;4335;48.860;9.198;2022-08-21T16:28:09;26.20;54.40